createdAt,value
2018-09-07T00:19:43.666Z,11.23
2018-09-07T00:20:25.011Z,10.20
2018-09-07T00:21:04.296Z,24.00
2018-09-07T00:22:27.906Z,15.90
2018-09-07T00:23:06.893Z,13.23
2018-09-07T00:23:46.046Z,10.03
2018-09-07T00:24:28.626Z,14.30
2018-09-07T00:25:51.383Z,6.00
2018-09-07T00:27:04.808Z,17.27
2018-09-07T00:28:28.802Z,16.63
2018-09-07T00:29:10.133Z,7.77
2018-09-07T00:30:01.213Z,10.93
2018-09-07T00:30:41.064Z,16.23
2018-09-07T00:31:23.219Z,17.93
2018-09-07T00:32:03.972Z,9.37
2018-09-07T00:32:43.122Z,10.60
2018-09-07T00:33:24.019Z,16.63
2018-09-07T00:34:04.858Z,15.83
2018-09-07T00:35:31.805Z,16.17
2018-09-07T00:36:11.126Z,12.33
2018-09-07T00:36:51.002Z,23.77
2018-09-07T00:37:32.211Z,10.30
2018-09-07T00:38:14.192Z,13.13
2018-09-07T00:39:38.685Z,34.40
2018-09-07T00:40:21.950Z,9.53
2018-09-07T00:41:02.212Z,17.43
2018-09-07T00:41:43.077Z,18.27
2018-09-07T00:42:26.353Z,22.53
2018-09-07T00:43:06.982Z,6.63
2018-09-07T00:43:47.969Z,79.37
2018-09-07T00:44:28.635Z,19.30
2018-09-07T00:45:10.035Z,10.93
2018-09-07T00:45:51.534Z,7.33
2018-09-07T00:46:30.501Z,6.23
2018-09-07T00:47:09.485Z,5.63
2018-09-07T00:47:49.599Z,5.83
2018-09-07T00:48:31.110Z,4.23
2018-09-07T00:49:12.819Z,4.27
2018-09-07T00:49:54.479Z,15.90
2018-09-07T00:51:42.770Z,3.57
2018-09-07T00:52:24.783Z,9.93
2018-09-07T00:53:09.969Z,9.00
2018-09-07T00:53:52.610Z,4.73
2018-09-07T00:54:31.662Z,4.77
2018-09-07T00:55:11.886Z,3.87
2018-09-07T00:55:54.740Z,5.53
2018-09-07T00:56:55.397Z,4.20
2018-09-07T00:57:35.426Z,7.23
2018-09-07T00:59:07.815Z,3.83
2018-09-07T00:59:48.833Z,4.13
2018-09-07T01:00:29.310Z,4.20
2018-09-07T01:01:13.634Z,3.27
2018-09-07T01:04:38.674Z,3.40
2018-09-07T01:05:23.721Z,5.63
2018-09-07T01:06:07.399Z,4.70
2018-09-07T01:06:48.452Z,4.30
2018-09-07T01:07:31.509Z,4.40
2018-09-07T01:08:12.598Z,3.57
2018-09-07T01:09:43.079Z,3.70
2018-09-07T01:10:26.302Z,4.40
2018-09-07T01:11:48.608Z,2.73
2018-09-07T01:12:28.740Z,3.20
2018-09-07T01:13:07.752Z,3.80
2018-09-07T01:13:46.841Z,3.17
2018-09-07T01:15:16.683Z,3.20
2018-09-07T01:16:00.285Z,6.53
2018-09-07T01:16:39.500Z,2.97
2018-09-07T01:17:18.588Z,4.10
2018-09-07T01:17:59.152Z,6.07
2018-09-07T01:18:38.114Z,4.20
2018-09-07T01:19:18.658Z,2.77
2018-09-07T01:19:57.860Z,3.40
2018-09-07T01:20:37.911Z,3.37
2018-09-07T01:21:17.717Z,5.57
2018-09-07T01:21:58.353Z,3.20
2018-09-07T01:22:37.559Z,3.57
2018-09-07T01:23:17.466Z,3.87
2018-09-07T01:24:00.283Z,4.60
2018-09-07T01:24:42.683Z,4.40
2018-09-07T01:25:23.646Z,3.60
2018-09-07T01:26:04.551Z,4.00
2018-09-07T01:26:45.714Z,5.50
2018-09-07T01:27:24.705Z,3.67
2018-09-07T01:28:03.836Z,4.83
2018-09-07T01:28:43.126Z,7.23
2018-09-07T01:29:23.596Z,4.00
2018-09-07T01:30:07.283Z,11.70
2018-09-07T01:30:48.583Z,3.63
2018-09-07T01:31:27.691Z,8.73
2018-09-07T01:32:07.614Z,5.40
2018-09-07T01:32:50.541Z,5.33
2018-09-07T01:33:29.781Z,5.13
2018-09-07T01:34:08.809Z,5.90
2018-09-07T01:34:53.418Z,3.97
2018-09-07T01:35:33.204Z,5.27
2018-09-07T01:36:12.115Z,4.37
2018-09-07T01:36:52.933Z,5.43
2018-09-07T01:37:39.755Z,7.43
2018-09-07T01:38:22.965Z,8.30
2018-09-07T01:39:01.893Z,6.90
2018-09-07T01:39:40.972Z,6.70
2018-09-07T01:40:22.889Z,4.47
2018-09-07T01:41:01.977Z,4.10
2018-09-07T01:41:41.270Z,3.73
2018-09-07T01:42:23.985Z,5.03
2018-09-07T01:43:02.271Z,5.40
2018-09-07T01:43:40.893Z,6.60
2018-09-07T01:44:22.769Z,4.93
2018-09-07T01:45:01.582Z,6.83
2018-09-07T01:45:40.490Z,3.90
2018-09-07T01:46:19.375Z,3.43
2018-09-07T01:46:58.432Z,3.97
2018-09-07T01:47:37.003Z,10.80
2018-09-07T01:48:19.713Z,3.60
2018-09-07T01:48:58.765Z,3.60
2018-09-07T01:49:40.167Z,4.80
2018-09-07T01:50:21.061Z,6.53
2018-09-07T01:51:00.480Z,4.63
2018-09-07T01:51:41.344Z,4.47
2018-09-07T01:52:20.287Z,4.20
2018-09-07T01:52:59.216Z,9.80
2018-09-07T01:53:42.147Z,4.10
2018-09-07T01:54:24.982Z,3.80
2018-09-07T01:55:04.277Z,7.03
2018-09-07T01:55:44.648Z,8.43
2018-09-07T01:56:23.725Z,5.00
2018-09-07T01:57:02.775Z,7.23
2018-09-07T01:57:41.967Z,7.50
2018-09-07T01:58:22.730Z,23.43
2018-09-07T01:59:02.486Z,8.60
2018-09-07T01:59:41.800Z,10.43
2018-09-07T02:00:20.108Z,13.03
2018-09-07T02:00:58.320Z,7.43
2018-09-07T02:01:36.574Z,14.40
2018-09-07T02:02:15.414Z,8.60
2018-09-07T02:02:58.233Z,7.03
2018-09-07T02:03:37.428Z,9.90
2018-09-07T02:07:32.026Z,6.60
2018-09-07T02:08:11.900Z,7.10
2018-09-07T02:08:51.152Z,7.63
2018-09-07T02:09:30.841Z,11.00
2018-09-07T02:10:09.745Z,11.13
2018-09-07T02:10:50.048Z,4.93
2018-09-07T02:11:28.921Z,7.30
2018-09-07T02:12:08.170Z,12.13
2018-09-07T02:12:47.169Z,10.00
2018-09-07T02:13:27.266Z,10.90
2018-09-07T02:14:06.298Z,8.80
2018-09-07T02:14:46.460Z,8.00
2018-09-07T02:15:25.731Z,7.10
2018-09-07T02:16:05.345Z,10.10
2018-09-07T02:16:44.535Z,19.17
2018-09-07T02:17:23.566Z,10.07
2018-09-07T02:18:02.497Z,9.97
2018-09-07T02:18:41.429Z,10.27
2018-09-07T02:19:20.469Z,8.53
2018-09-07T02:19:59.425Z,13.33
2018-09-07T02:20:39.580Z,14.67
2018-09-07T02:21:19.203Z,6.47
2018-09-07T02:21:58.293Z,7.37
2018-09-07T02:22:37.619Z,5.80
2018-09-07T02:23:16.872Z,9.83
2018-09-07T02:23:56.889Z,7.30
2018-09-07T02:24:35.823Z,6.07
2018-09-07T02:25:16.499Z,5.37
2018-09-07T02:25:55.468Z,11.30
2018-09-07T02:26:34.521Z,10.80
2018-09-07T02:27:14.764Z,6.87
2018-09-07T02:27:53.689Z,7.97
2018-09-07T02:28:32.935Z,7.83
2018-09-07T02:29:11.818Z,8.30
2018-09-07T02:29:51.322Z,16.80
2018-09-07T02:30:31.224Z,16.97
2018-09-07T02:31:10.067Z,6.93
2018-09-07T02:31:49.196Z,10.67
2018-09-07T02:32:28.239Z,9.93
2018-09-07T02:33:07.538Z,11.10
2018-09-07T02:33:46.740Z,9.53
2018-09-07T02:34:26.140Z,12.60
2018-09-07T02:35:05.083Z,8.00
2018-09-07T02:35:44.135Z,11.67
2018-09-07T02:36:23.120Z,5.17
2018-09-07T02:37:01.924Z,8.53
2018-09-07T02:37:40.822Z,6.10
2018-09-07T02:38:20.030Z,10.33
2018-09-07T02:38:59.317Z,8.67
2018-09-07T02:39:38.255Z,5.80
2018-09-07T02:40:17.633Z,8.00
2018-09-07T02:40:56.560Z,5.63
2018-09-07T02:41:36.592Z,8.50
2018-09-07T02:42:16.597Z,12.83
2018-09-07T02:42:55.756Z,7.53
2018-09-07T02:43:34.644Z,7.80
2018-09-07T02:44:13.649Z,7.10
2018-09-07T02:44:52.838Z,5.60
2018-09-07T02:45:32.582Z,7.50
2018-09-07T02:46:11.628Z,11.50
2018-09-07T02:46:50.608Z,9.23
2018-09-07T02:47:29.668Z,6.60
2018-09-07T02:48:08.796Z,8.20
2018-09-07T02:48:47.853Z,16.13
2018-09-07T02:49:26.981Z,7.17
2018-09-07T02:50:05.967Z,16.47
2018-09-07T02:50:45.310Z,15.07
2018-09-07T02:51:24.596Z,13.40
2018-09-07T02:52:03.628Z,14.30
2018-09-07T02:52:42.749Z,6.57
2018-09-07T02:53:21.694Z,11.03
2018-09-07T02:54:00.493Z,12.27
2018-09-07T02:54:39.413Z,6.67
2018-09-07T02:55:18.613Z,6.30
2018-09-07T02:55:57.675Z,9.23
2018-09-07T02:56:36.913Z,10.33
2018-09-07T02:58:02.358Z,15.03
2018-09-07T02:58:41.392Z,11.00
2018-09-07T02:59:20.291Z,5.87
2018-09-07T02:59:59.117Z,8.50
2018-09-07T03:00:38.020Z,12.73
2018-09-07T03:01:17.429Z,9.67
2018-09-07T03:01:56.651Z,12.17
2018-09-07T03:02:35.969Z,16.23
2018-09-07T03:03:15.477Z,8.60
2018-09-07T03:04:02.316Z,8.60
2018-09-07T03:04:42.114Z,9.87
2018-09-07T03:05:21.048Z,14.47
2018-09-07T03:06:00.009Z,15.00
2018-09-07T03:06:39.275Z,25.27
2018-09-07T03:07:18.199Z,9.43
2018-09-07T03:07:59.428Z,10.53
2018-09-07T03:08:38.525Z,8.47
2018-09-07T03:09:17.479Z,10.30
2018-09-07T03:09:56.369Z,7.93
2018-09-07T03:10:35.312Z,25.90
2018-09-07T03:11:14.522Z,27.57
2018-09-07T03:11:53.714Z,10.77
2018-09-07T03:12:32.676Z,12.23
2018-09-07T03:13:11.607Z,8.77
2018-09-07T03:13:51.058Z,11.10
2018-09-07T03:14:30.409Z,12.30
2018-09-07T03:15:18.929Z,12.30
2018-09-07T03:16:07.197Z,14.10
2018-09-07T03:16:55.278Z,11.70
2018-09-07T03:17:34.280Z,12.27
2018-09-07T03:18:13.432Z,12.33
2018-09-07T03:18:52.610Z,15.03
2018-09-07T03:19:31.799Z,11.77
2018-09-07T03:20:10.639Z,20.53
2018-09-07T03:20:49.802Z,8.27
2018-09-07T03:21:28.943Z,10.10
2018-09-07T03:22:08.043Z,12.63
2018-09-07T03:22:48.164Z,11.67
2018-09-07T03:23:27.382Z,14.70
2018-09-07T03:24:06.339Z,15.63
2018-09-07T03:24:45.687Z,8.50
2018-09-07T03:25:24.741Z,14.53
2018-09-07T03:26:03.667Z,15.23
2018-09-07T03:26:42.999Z,15.30
2018-09-07T03:27:22.074Z,8.77
2018-09-07T03:28:01.238Z,14.63
2018-09-07T03:28:40.216Z,9.70
2018-09-07T03:29:19.307Z,9.20
2018-09-07T03:29:58.295Z,11.87
2018-09-07T03:30:37.628Z,14.10
2018-09-07T03:31:16.773Z,13.67
2018-09-07T03:31:55.856Z,20.20
2018-09-07T03:32:34.773Z,14.93
2018-09-07T03:33:14.045Z,12.80
2018-09-07T03:33:53.130Z,14.10
2018-09-07T03:34:33.028Z,13.40
2018-09-07T03:35:11.978Z,11.57
2018-09-07T03:35:51.354Z,14.57
2018-09-07T03:36:31.043Z,14.90
2018-09-07T03:37:10.005Z,12.10
2018-09-07T03:37:49.103Z,10.93
2018-09-07T03:38:28.391Z,8.73
2018-09-07T03:39:07.771Z,11.43
2018-09-07T03:39:46.623Z,14.23
2018-09-07T03:40:25.541Z,10.00
2018-09-07T03:41:06.579Z,20.80
2018-09-07T03:41:45.862Z,13.93
2018-09-07T03:43:06.814Z,14.63
2018-09-07T03:44:45.344Z,17.20
2018-09-07T03:45:24.234Z,24.30
2018-09-07T03:46:03.460Z,23.07
2018-09-07T03:46:42.445Z,21.97
2018-09-07T03:47:21.372Z,40.73
2018-09-07T03:48:00.861Z,22.23
2018-09-07T03:48:41.083Z,27.87
2018-09-07T03:49:21.945Z,29.43
2018-09-07T03:50:01.776Z,18.80
2018-09-07T03:50:41.445Z,27.00
2018-09-07T03:51:20.804Z,29.70
2018-09-07T03:52:05.800Z,28.57
2018-09-07T03:52:44.716Z,18.07
2018-09-07T03:53:23.890Z,23.53
2018-09-07T03:54:02.855Z,28.17
2018-09-07T03:54:42.246Z,19.40
2018-09-07T03:55:21.352Z,26.03
2018-09-07T03:56:00.182Z,24.03
2018-09-07T03:56:41.537Z,24.07
2018-09-07T03:57:20.553Z,21.43
2018-09-07T03:57:59.896Z,27.73
2018-09-07T03:58:40.803Z,18.37
2018-09-07T03:59:19.833Z,25.40
2018-09-07T03:59:58.646Z,24.87
2018-09-07T04:00:40.023Z,24.27
2018-09-07T04:01:18.896Z,27.37
2018-09-07T04:01:58.004Z,27.03
2018-09-07T04:02:37.264Z,31.13
2018-09-07T04:03:17.404Z,24.13
2018-09-07T04:03:56.771Z,33.50
2018-09-07T04:04:35.696Z,28.73
2018-09-07T04:05:14.996Z,27.77
2018-09-07T04:05:54.317Z,29.50
2018-09-07T04:06:33.278Z,36.67
2018-09-07T04:07:12.212Z,25.97
2018-09-07T04:07:51.181Z,31.50
2018-09-07T04:08:30.583Z,35.57
2018-09-07T04:09:10.805Z,38.07
2018-09-07T04:09:49.764Z,44.90
2018-09-07T04:10:28.754Z,33.40
2018-09-07T04:11:07.823Z,49.40
2018-09-07T04:11:46.665Z,32.63
2018-09-07T04:12:25.912Z,37.33
2018-09-07T04:13:05.203Z,33.67
2018-09-07T04:13:44.024Z,29.40
2018-09-07T04:14:22.957Z,17.50
2018-09-07T04:15:01.824Z,33.77
2018-09-07T04:15:41.397Z,32.60
2018-09-07T04:16:20.290Z,33.53
2018-09-07T04:16:59.633Z,29.97
2018-09-07T04:17:42.141Z,30.47
2018-09-07T04:18:21.681Z,27.90
2018-09-07T04:19:00.770Z,31.70
2018-09-07T04:19:40.147Z,31.17
2018-09-07T04:20:20.621Z,30.50
2018-09-07T04:20:59.543Z,29.73
2018-09-07T04:21:39.217Z,28.07
2018-09-07T04:22:18.236Z,33.60
2018-09-07T04:22:57.067Z,25.80
2018-09-07T04:23:42.158Z,22.60
2018-09-07T04:24:21.013Z,27.77
2018-09-07T04:25:00.057Z,23.37
2018-09-07T04:25:39.301Z,38.67
2018-09-07T04:26:23.131Z,24.27
2018-09-07T04:27:01.998Z,21.63
2018-09-07T04:27:40.767Z,25.93
2018-09-07T04:28:19.403Z,27.00
2018-09-07T04:28:58.336Z,27.37
2018-09-07T04:29:37.374Z,27.73
2018-09-07T04:30:16.401Z,28.03
2018-09-07T04:30:56.017Z,22.97
2018-09-07T04:31:35.336Z,18.57
2018-09-07T04:32:14.038Z,26.57
2018-09-07T04:32:53.034Z,21.73
2018-09-07T04:33:31.881Z,27.80
2018-09-07T04:34:10.855Z,20.57
2018-09-07T04:34:50.136Z,18.40
2018-09-07T04:35:30.099Z,22.60
2018-09-07T04:36:08.998Z,23.93
2018-09-07T04:36:47.768Z,30.87
2018-09-07T04:37:26.612Z,25.17
2018-09-07T04:38:05.745Z,33.13
2018-09-07T04:38:44.869Z,21.47
2018-09-07T04:39:23.881Z,23.23
2018-09-07T04:40:02.922Z,26.37
2018-09-07T04:40:41.762Z,35.63
2018-09-07T04:41:20.841Z,21.67
2018-09-07T04:41:59.345Z,23.40
2018-09-07T04:42:38.077Z,26.43
2018-09-07T04:43:16.835Z,18.63
2018-09-07T04:43:55.877Z,18.17
2018-09-07T04:44:34.681Z,29.77
2018-09-07T04:45:13.699Z,24.97
2018-09-07T04:45:52.631Z,28.73
2018-09-07T04:46:31.637Z,33.63
2018-09-07T04:47:10.130Z,35.37
2018-09-07T04:47:49.385Z,26.30
2018-09-07T04:48:28.227Z,13.50
2018-09-07T04:49:06.924Z,17.67
2018-09-07T04:49:45.833Z,13.63
2018-09-07T04:50:24.601Z,12.70
2018-09-07T04:51:03.231Z,18.13
2018-09-07T04:51:42.216Z,21.37
2018-09-07T04:52:21.316Z,20.23
2018-09-07T04:53:00.628Z,20.83
2018-09-07T04:53:39.500Z,16.30
2018-09-07T04:54:18.243Z,17.53
2018-09-07T04:54:56.763Z,16.27
2018-09-07T04:55:35.790Z,20.93
2018-09-07T04:56:14.722Z,18.53
2018-09-07T04:56:53.421Z,45.37
2018-09-07T04:57:32.346Z,13.47
2018-09-07T04:58:11.131Z,11.93
2018-09-07T04:58:49.877Z,27.80
2018-09-07T04:59:28.402Z,28.77
2018-09-07T05:00:07.052Z,19.97
2018-09-07T05:00:45.846Z,12.33
2018-09-07T05:01:24.648Z,18.30
2018-09-07T05:02:03.862Z,17.63
2018-09-07T05:02:42.581Z,22.93
2018-09-07T05:03:21.272Z,25.07
2018-09-07T05:03:59.892Z,12.33
2018-09-07T05:04:38.554Z,19.20
2018-09-07T05:05:17.013Z,23.57
2018-09-07T05:05:55.561Z,33.07
2018-09-07T05:06:34.081Z,18.10
2018-09-07T05:07:12.427Z,15.50
2018-09-07T05:07:50.753Z,16.73
2018-09-07T05:08:29.523Z,17.47
2018-09-07T05:09:08.376Z,15.53
2018-09-07T05:09:47.012Z,14.00
2018-09-07T05:10:25.803Z,10.70
2018-09-07T05:11:04.191Z,22.40
2018-09-07T05:11:42.619Z,10.50
2018-09-07T05:12:21.066Z,12.43
2018-09-07T05:12:59.388Z,17.60
2018-09-07T05:13:37.953Z,10.53
2018-09-07T05:14:16.370Z,13.70
2018-09-07T05:14:55.114Z,8.53
2018-09-07T05:15:33.494Z,15.37
2018-09-07T05:16:11.741Z,13.93
2018-09-07T05:16:49.964Z,13.83
2018-09-07T05:17:28.291Z,17.30
2018-09-07T05:18:06.515Z,12.10
2018-09-07T05:18:44.853Z,25.00
2018-09-07T05:19:23.399Z,9.00
2018-09-07T05:20:01.915Z,16.97
2018-09-07T05:20:40.267Z,17.03
2018-09-07T05:21:18.703Z,17.43
2018-09-07T05:21:57.212Z,18.53
2018-09-07T05:22:35.797Z,19.27
2018-09-07T05:23:15.298Z,20.80
2018-09-07T05:23:53.793Z,12.50
2018-09-07T05:24:32.403Z,17.23
2018-09-07T05:25:11.426Z,16.47
2018-09-07T05:25:50.619Z,16.47
2018-09-07T05:26:29.450Z,16.23
2018-09-07T05:27:08.076Z,23.67
2018-09-07T05:27:46.428Z,17.20
2018-09-07T05:28:24.679Z,15.27
2018-09-07T05:29:03.375Z,24.50
2018-09-07T05:29:41.969Z,18.90
2018-09-07T05:30:20.345Z,17.80
2018-09-07T05:30:58.734Z,16.17
2018-09-07T05:31:37.095Z,16.07
2018-09-07T05:32:15.406Z,14.30
2018-09-07T05:32:53.853Z,14.83
2018-09-07T05:33:33.299Z,17.40
2018-09-07T05:34:11.809Z,17.13
2018-09-07T05:34:50.089Z,14.73
2018-09-07T05:35:28.231Z,18.50
2018-09-07T05:36:06.485Z,17.63
2018-09-07T05:36:44.861Z,23.63
2018-09-07T05:37:23.107Z,18.10
2018-09-07T05:38:01.405Z,15.63
2018-09-07T05:38:41.018Z,19.37
2018-09-07T05:39:19.477Z,15.30
2018-09-07T05:39:57.633Z,17.00
2018-09-07T05:40:35.945Z,19.73
2018-09-07T05:41:14.297Z,14.43
2018-09-07T05:41:52.523Z,23.27
2018-09-07T05:42:30.952Z,12.80
2018-09-07T05:43:09.312Z,15.70
2018-09-07T05:43:47.356Z,13.80
2018-09-07T05:44:25.560Z,21.93
2018-09-07T05:45:03.847Z,18.00
2018-09-07T05:45:42.588Z,18.17
2018-09-07T05:46:21.380Z,19.83
2018-09-07T05:47:00.485Z,18.30
2018-09-07T05:47:39.302Z,19.83
2018-09-07T05:48:18.213Z,16.13
2018-09-07T05:48:57.053Z,21.00
2018-09-07T05:49:36.644Z,18.03
2018-09-07T05:50:15.509Z,33.30
2018-09-07T05:50:54.581Z,14.10
2018-09-07T05:51:33.638Z,21.87
2018-09-07T05:52:12.530Z,24.03
2018-09-07T05:52:51.132Z,25.03
2018-09-07T05:53:29.601Z,28.23
2018-09-07T05:54:08.197Z,23.57
2018-09-07T05:54:46.762Z,21.73
2018-09-07T05:55:25.620Z,23.97
2018-09-07T05:56:04.028Z,23.10
2018-09-07T05:56:42.487Z,30.27
2018-09-07T05:57:20.657Z,22.93
2018-09-07T05:57:59.645Z,19.03
2018-09-07T05:58:42.864Z,20.67
2018-09-07T05:59:21.902Z,14.90
2018-09-07T06:00:01.093Z,19.57
2018-09-07T06:00:39.819Z,21.50
2018-09-07T06:01:18.667Z,17.57
2018-09-07T06:01:57.387Z,21.90
2018-09-07T06:02:37.022Z,18.57
2018-09-07T06:03:15.379Z,23.67
2018-09-07T06:03:53.612Z,19.83
2018-09-07T06:04:31.979Z,15.43
2018-09-07T06:05:10.475Z,17.73
2018-09-07T06:05:48.708Z,12.20
2018-09-07T06:06:27.018Z,19.57
2018-09-07T06:07:05.268Z,12.50
2018-09-07T06:07:43.368Z,12.70
2018-09-07T06:08:21.549Z,16.70
2018-09-07T06:08:59.970Z,16.53
2018-09-07T06:09:38.456Z,19.53
2018-09-07T06:10:17.271Z,13.68
2018-09-07T06:10:55.566Z,16.00
2018-09-07T06:11:33.730Z,14.03
2018-09-07T06:12:11.915Z,21.17
2018-09-07T06:12:50.128Z,14.47
2018-09-07T06:13:29.585Z,26.87
2018-09-07T06:14:08.026Z,14.83
2018-09-07T06:14:46.295Z,14.83
2018-09-07T06:15:24.564Z,19.43
2018-09-07T06:16:02.746Z,18.80
2018-09-07T06:16:41.025Z,16.10
2018-09-07T06:17:19.291Z,20.17
2018-09-07T06:17:57.775Z,17.63
2018-09-07T06:18:36.062Z,8.23
2018-09-07T06:19:14.420Z,20.43
2018-09-07T06:19:52.553Z,11.90
2018-09-07T06:20:30.766Z,12.80
2018-09-07T06:21:09.059Z,13.53
2018-09-07T06:21:47.221Z,16.13
2018-09-07T06:22:25.560Z,14.73
2018-09-07T06:23:03.762Z,13.40
2018-09-07T06:23:41.935Z,13.30
2018-09-07T06:24:20.120Z,15.67
2018-09-07T06:24:58.466Z,9.03
2018-09-07T06:25:36.774Z,10.33
2018-09-07T06:26:14.998Z,10.50
2018-09-07T06:26:53.512Z,17.03
2018-09-07T06:27:31.893Z,21.33
2018-09-07T06:28:10.124Z,9.67
2018-09-07T06:28:48.337Z,14.80
2018-09-07T06:29:26.549Z,9.40
2018-09-07T06:30:04.731Z,9.33
2018-09-07T06:30:42.961Z,10.40
2018-09-07T06:31:21.416Z,14.43
2018-09-07T06:31:59.670Z,17.27
2018-09-07T06:32:38.067Z,12.60
2018-09-07T06:33:16.536Z,15.93
2018-09-07T06:33:54.886Z,8.30
2018-09-07T06:34:34.049Z,11.27
2018-09-07T06:35:12.448Z,18.17
2018-09-07T06:35:50.713Z,9.33
2018-09-07T06:36:29.001Z,11.53
2018-09-07T06:37:07.310Z,12.23
2018-09-07T06:37:45.482Z,15.67
2018-09-07T06:38:23.939Z,13.80
2018-09-07T06:39:02.345Z,12.93
2018-09-07T06:39:40.620Z,15.57
2018-09-07T06:40:19.299Z,12.40
2018-09-07T06:40:57.986Z,13.27
2018-09-07T06:41:36.622Z,15.00
2018-09-07T06:42:15.213Z,12.00
2018-09-07T06:42:53.677Z,13.67
2018-09-07T06:43:31.617Z,19.83
2018-09-07T06:44:09.822Z,18.77
2018-09-07T06:44:47.844Z,19.30
2018-09-07T06:45:25.953Z,18.57
2018-09-07T06:46:04.007Z,18.63
2018-09-07T06:46:42.012Z,15.87
2018-09-07T06:47:20.131Z,21.20
2018-09-07T06:47:58.084Z,16.43
2018-09-07T06:48:36.149Z,18.37
2018-09-07T06:49:14.114Z,19.57
2018-09-07T06:49:52.016Z,17.67
2018-09-07T06:50:30.000Z,24.07
2018-09-07T06:51:07.905Z,17.30
2018-09-07T06:51:46.305Z,20.33
2018-09-07T06:52:24.193Z,13.53
2018-09-07T06:53:02.297Z,22.53
2018-09-07T06:53:40.398Z,14.57
2018-09-07T06:54:18.324Z,17.67
2018-09-07T06:54:56.242Z,20.23
2018-09-07T06:55:34.313Z,16.23
2018-09-07T06:56:12.379Z,19.90
2018-09-07T06:56:50.373Z,16.13
2018-09-07T06:57:28.402Z,13.93
2018-09-07T06:58:06.546Z,20.10
2018-09-07T06:58:44.633Z,14.00
2018-09-07T06:59:22.593Z,15.53
2018-09-07T07:00:00.477Z,14.77
2018-09-07T07:00:38.694Z,15.70
2018-09-07T07:01:17.301Z,18.37
2018-09-07T07:01:55.584Z,23.57
2018-09-07T07:02:33.983Z,19.23
2018-09-07T07:03:12.870Z,20.13
2018-09-07T07:03:51.153Z,21.93
2018-09-07T07:04:29.462Z,21.27
2018-09-07T07:05:07.886Z,25.67
2018-09-07T07:07:36.245Z,20.03
2018-09-07T07:08:14.521Z,22.17
2018-09-07T07:08:53.055Z,20.13
2018-09-07T07:09:31.418Z,22.40
2018-09-07T07:10:09.903Z,19.37
2018-09-07T07:10:48.398Z,28.83
2018-09-07T07:11:26.646Z,26.77
2018-09-07T07:12:04.905Z,26.87
2018-09-07T07:12:43.194Z,19.43
2018-09-07T07:13:21.502Z,18.97
2018-09-07T07:14:00.902Z,24.53
2018-09-07T07:14:39.758Z,24.57
2018-09-07T07:15:18.343Z,24.43
2018-09-07T07:15:56.696Z,29.33
2018-09-07T07:16:35.193Z,28.60
2018-09-07T07:17:13.651Z,19.10
2018-09-07T07:17:51.959Z,22.80
2018-09-07T07:18:30.290Z,23.20
2018-09-07T07:19:08.632Z,28.60
2018-09-07T07:19:46.913Z,23.40
2018-09-07T07:20:25.330Z,25.63
2018-09-07T07:21:03.684Z,32.87
2018-09-07T07:21:41.894Z,25.03
2018-09-07T07:22:20.244Z,26.10
2018-09-07T07:22:58.656Z,21.83
2018-09-07T07:23:37.854Z,16.40
2018-09-07T07:24:18.024Z,35.30
2018-09-07T07:24:56.333Z,27.67
2018-09-07T07:25:34.744Z,34.27
2018-09-07T07:26:13.200Z,22.80
2018-09-07T07:26:51.443Z,22.27
2018-09-07T07:27:30.199Z,24.77
2018-09-07T07:28:08.809Z,36.93
2018-09-07T07:28:47.428Z,21.33
2018-09-07T07:29:25.825Z,29.20
2018-09-07T07:30:04.184Z,27.37
2018-09-07T07:30:42.619Z,31.67
2018-09-07T07:31:21.206Z,24.50
2018-09-07T07:31:59.936Z,20.40
2018-09-07T07:32:38.299Z,19.23
2018-09-07T07:33:16.547Z,19.70
2018-09-07T07:33:54.917Z,21.40
2018-09-07T07:34:33.203Z,28.80
2018-09-07T07:35:11.444Z,24.37
2018-09-07T07:35:49.707Z,23.33
2018-09-07T07:36:29.848Z,25.60
2018-09-07T07:37:08.377Z,20.80
2018-09-07T07:37:46.956Z,23.00
2018-09-07T07:38:25.636Z,20.97
2018-09-07T07:39:03.912Z,24.43
2018-09-07T07:39:42.157Z,18.10
2018-09-07T07:40:20.555Z,22.30
2018-09-07T07:40:58.834Z,27.30
2018-09-07T07:41:37.090Z,17.70
2018-09-07T07:42:15.527Z,20.50
2018-09-07T07:42:53.653Z,32.20
2018-09-07T07:43:31.856Z,15.90
2018-09-07T07:44:10.144Z,20.93
2018-09-07T07:44:48.362Z,20.90
2018-09-07T07:45:26.722Z,24.67
2018-09-07T07:46:04.988Z,16.27
2018-09-07T07:46:43.160Z,23.93
2018-09-07T07:47:21.434Z,26.23
2018-09-07T07:47:59.732Z,23.60
2018-09-07T07:48:38.121Z,23.23
2018-09-07T07:49:16.511Z,24.20
2018-09-07T07:49:54.801Z,28.77
2018-09-07T07:50:33.117Z,19.93
2018-09-07T07:51:11.456Z,19.03
2018-09-07T07:51:49.691Z,26.10
2018-09-07T07:52:27.950Z,13.77
2018-09-07T07:53:06.042Z,25.90
2018-09-07T07:53:44.393Z,19.40
2018-09-07T07:54:22.795Z,20.83
2018-09-07T07:55:01.213Z,30.50
2018-09-07T07:55:39.419Z,19.23
2018-09-07T07:56:17.598Z,24.10
2018-09-07T07:56:55.827Z,21.77
2018-09-07T07:57:34.192Z,19.13
2018-09-07T07:58:12.679Z,20.80
2018-09-07T07:58:50.805Z,15.43
2018-09-07T07:59:29.039Z,17.80
2018-09-07T08:00:07.258Z,16.20
2018-09-07T08:00:45.618Z,19.37
2018-09-07T08:01:24.005Z,22.20
2018-09-07T08:02:02.227Z,16.30
2018-09-07T08:02:40.553Z,20.77
2018-09-07T08:03:18.847Z,20.10
2018-09-07T08:03:57.182Z,25.50
2018-09-07T08:04:35.626Z,26.47
2018-09-07T08:05:14.017Z,21.47
2018-09-07T08:05:52.362Z,19.87
2018-09-07T08:06:30.533Z,23.40
2018-09-07T08:07:08.843Z,25.53
2018-09-07T08:07:47.144Z,22.60
2018-09-07T08:08:25.340Z,22.30
2018-09-07T08:09:03.556Z,23.67
2018-09-07T08:09:41.780Z,21.43
2018-09-07T08:10:19.904Z,24.97
2018-09-07T08:10:58.069Z,35.23
2018-09-07T08:11:36.318Z,24.70
2018-09-07T08:12:14.599Z,33.03
2018-09-07T08:12:52.753Z,29.10
2018-09-07T08:13:31.137Z,24.13
2018-09-07T08:14:09.536Z,27.90
2018-09-07T08:14:47.724Z,23.60
2018-09-07T08:15:26.092Z,31.20
2018-09-07T08:16:04.720Z,29.73
2018-09-07T08:16:43.119Z,28.17
2018-09-07T08:17:21.356Z,34.17
2018-09-07T08:17:59.511Z,29.40
2018-09-07T08:18:37.665Z,26.87
2018-09-07T08:19:17.148Z,38.17
2018-09-07T08:19:55.622Z,27.00
2018-09-07T08:20:34.915Z,30.00
2018-09-07T08:21:13.446Z,33.77
2018-09-07T08:21:51.952Z,29.77
2018-09-07T08:22:30.206Z,30.97
2018-09-07T08:23:08.401Z,27.90
2018-09-07T08:23:46.654Z,32.47
2018-09-07T08:24:25.235Z,27.63
2018-09-07T08:25:04.806Z,31.73
2018-09-07T08:25:43.034Z,22.67
2018-09-07T08:26:21.166Z,37.13
2018-09-07T08:26:59.544Z,23.60
2018-09-07T08:27:37.808Z,30.47
2018-09-07T08:28:16.291Z,28.30
2018-09-07T08:28:54.855Z,21.90
2018-09-07T08:29:33.173Z,42.87
2018-09-07T08:30:11.892Z,25.30
2018-09-07T08:30:50.084Z,30.60
2018-09-07T08:31:28.370Z,23.80
2018-09-07T08:32:06.584Z,22.77
2018-09-07T08:32:45.212Z,30.10
2018-09-07T08:33:23.865Z,28.37
2018-09-07T08:34:02.169Z,38.13
2018-09-07T08:34:40.590Z,33.30
2018-09-07T08:35:18.754Z,29.73
2018-09-07T08:35:56.968Z,25.97
2018-09-07T08:36:35.107Z,31.80
2018-09-07T08:37:13.546Z,31.10
2018-09-07T08:37:51.870Z,23.50
2018-09-07T08:38:30.022Z,27.73
2018-09-07T08:39:09.536Z,27.87
2018-09-07T08:39:47.821Z,29.17
2018-09-07T08:40:26.024Z,21.57
2018-09-07T08:41:04.645Z,28.30
2018-09-07T08:41:42.974Z,27.27
2018-09-07T08:42:21.376Z,27.20
2018-09-07T08:42:59.693Z,31.03
2018-09-07T08:43:37.878Z,27.53
2018-09-07T08:44:17.034Z,23.45
2018-09-07T08:44:55.434Z,32.57
2018-09-07T08:45:33.726Z,29.13
2018-09-07T08:46:12.205Z,26.30
2018-09-07T08:46:50.484Z,31.13
2018-09-07T08:47:28.816Z,27.43
2018-09-07T08:48:07.172Z,30.93
2018-09-07T08:48:45.867Z,32.50
2018-09-07T08:49:24.282Z,39.23
2018-09-07T08:50:02.431Z,23.73
2018-09-07T08:50:40.899Z,37.37
2018-09-07T08:51:19.217Z,27.20
2018-09-07T08:51:57.786Z,24.10
2018-09-07T08:52:36.020Z,24.30
2018-09-07T08:53:14.533Z,28.33
2018-09-07T08:53:52.831Z,23.00
2018-09-07T08:54:31.257Z,30.13
2018-09-07T08:55:10.221Z,24.50
2018-09-07T08:55:48.550Z,27.30
2018-09-07T08:56:26.989Z,21.50
2018-09-07T08:57:05.271Z,24.90
2018-09-07T08:57:43.473Z,26.27
2018-09-07T08:58:21.812Z,24.70
2018-09-07T08:59:00.289Z,25.23
2018-09-07T08:59:43.084Z,25.03
2018-09-07T09:00:21.479Z,32.10
2018-09-07T09:01:00.949Z,22.63
2018-09-07T09:01:39.484Z,28.83
2018-09-07T09:02:18.533Z,24.70
2018-09-07T09:02:56.903Z,28.07
2018-09-07T09:03:35.236Z,27.27
2018-09-07T09:04:13.642Z,26.93
2018-09-07T09:04:51.872Z,27.23
2018-09-07T09:05:30.143Z,15.10
2018-09-07T09:06:08.413Z,21.97
2018-09-07T09:06:46.802Z,18.83